Lakewood, New Mexico
Current Conditions -  °F | °C
As of 5:15 AM on Thursday 18 Dec 2014 (Local Time) from KATS Reporting Station
Clear Clear  
Wind Chill: 29°   Ceiling: Unl
Heat Index: 36°   Visibility: 10mi
Dew Point: 30°   Wind: 9mph
Humidity: 81%   Direction: 220°SW
Pressure: 30.09"   Gusts: NA
Location:  32.63°N, 104.38°W
Report Text: KATS 181215Z AUTO 22008KT 10SM CLR 02/M01 A3009 RMK AO2
Loading
Personal Weather Stations






























Interactive Weather Map New forecast layout! Learn more

10-Day Weather Forecast

Advertisements
Track Severe Weather on mobile